Overview Statistics Trail Chart Weather Telemetry Raw packets
 

This is the latest recevied weather packets stored in our database for station/object IZ2PAG-10. If no packets are shown the sender has not sent any weather packets the latest 10 day(s).

<< 16 17 18 19 20 21 22 >>
Time Temp. Humidity Pressure Rain* Wind** Luminosity Snow
1787951343 26.11° C 46% 1014.9 hPa - - - -
1787951311 26.11° C 46% 1014.9 hPa - - - -
1787949558 26.11° C 46% 1015.3 hPa - - - -
1787949511 26.11° C 46% 1015.3 hPa - - - -
1787947720 26.11° C 46% 1015.8 hPa - - - -
1787945910 26.11° C 45% 1015.8 hPa - - - -
1787944110 26.67° C 45% 1016 hPa - - - -
1787942309 26.67° C 45% 1015.8 hPa - - - -
1787940543 26.67° C 45% 1016.4 hPa - - - -
1787940509 26.67° C 45% 1016.4 hPa - - - -
1787938756 26.67° C 45% 1016.8 hPa - - - -
1787938708 26.67° C 45% 1016.8 hPa - - - -
1787936908 26.67° C 45% 1016.8 hPa - - - -
1787935107 26.67° C 44% 1015.8 hPa - - - -
1787933343 26.67° C 46% 1016.1 hPa - - - -
1787933307 26.67° C 46% 1016.1 hPa - - - -
1787931506 27.22° C 39% 1015.5 hPa - - - -
1787929755 27.78° C 36% 1015.3 hPa - - - -
1787929706 27.78° C 36% 1015.3 hPa - - - -
1787927943 27.78° C 36% 1015.7 hPa - - - -
1787927906 27.78° C 36% 1015.7 hPa - - - -
1787926105 27.78° C 36% 1016.3 hPa - - - -
1787924305 27.78° C 36% 1016.1 hPa - - - -
1787922505 27.78° C 36% 1016.6 hPa - - - -
1787920744 27.78° C 37% 1016.9 hPa - - - -

* Rain since midnight (hover to see other rain measurements)
** Current wind speed in m/s (hover to see current wind gust speed)